sensor_id;sensor_type;location;lat;lon;timestamp;pressure;altitude;pressure_sealevel;temperature;humidity
70902;BME280;58548;47.210;8.618;2022-07-03T00:01:49;94542.50;;;24.13;43.33
70902;BME280;58548;47.210;8.618;2022-07-03T00:04:15;94542.50;;;24.13;43.58
70902;BME280;58548;47.210;8.618;2022-07-03T00:06:41;94494.13;;;23.78;43.23
70902;BME280;58548;47.210;8.618;2022-07-03T00:09:09;94465.53;;;23.63;43.02
70902;BME280;58548;47.210;8.618;2022-07-03T00:11:37;94540.34;;;24.05;43.01
70902;BME280;58548;47.210;8.618;2022-07-03T00:14:05;94438.81;;;23.43;43.41
70902;BME280;58548;47.210;8.618;2022-07-03T00:16:31;94541.38;;;23.99;43.27
70902;BME280;58548;47.210;8.618;2022-07-03T00:18:59;94446.56;;;23.39;43.48
70902;BME280;58548;47.210;8.618;2022-07-03T00:21:31;94484.47;;;23.62;43.71
70902;BME280;58548;47.210;8.618;2022-07-03T00:24:10;94464.97;;;23.46;43.47
70902;BME280;58548;47.210;8.618;2022-07-03T00:26:41;94513.31;;;23.81;43.43
70902;BME280;58548;47.210;8.618;2022-07-03T00:29:14;94540.81;;;23.91;43.76
70902;BME280;58548;47.210;8.618;2022-07-03T00:31:41;94536.81;;;23.89;43.51
70902;BME280;58548;47.210;8.618;2022-07-03T00:34:11;94522.63;;;23.78;43.78
70902;BME280;58548;47.210;8.618;2022-07-03T00:36:46;94471.59;;;23.43;43.64
70902;BME280;58548;47.210;8.618;2022-07-03T00:39:12;94533.06;;;23.90;43.88
70902;BME280;58548;47.210;8.618;2022-07-03T00:41:44;94526.38;;;23.82;43.65
70902;BME280;58548;47.210;8.618;2022-07-03T00:44:12;94470.81;;;23.43;43.88
70902;BME280;58548;47.210;8.618;2022-07-03T00:46:41;94527.72;;;23.79;44.00
70902;BME280;58548;47.210;8.618;2022-07-03T00:49:10;94534.94;;;23.84;43.98
70902;BME280;58548;47.210;8.618;2022-07-03T00:51:41;94464.91;;;23.36;44.03
70902;BME280;58548;47.210;8.618;2022-07-03T00:54:09;94539.72;;;23.82;44.24
70902;BME280;58548;47.210;8.618;2022-07-03T00:56:40;94519.94;;;23.73;43.98
70902;BME280;58548;47.210;8.618;2022-07-03T00:59:07;94532.25;;;23.79;44.23
70902;BME280;58548;47.210;8.618;2022-07-03T01:01:35;94499.66;;;23.61;44.19
70902;BME280;58548;47.210;8.618;2022-07-03T01:07:17;94526.88;;;23.74;43.87
70902;BME280;58548;47.210;8.618;2022-07-03T01:10:12;94532.22;;;23.74;43.44
70902;BME280;58548;47.210;8.618;2022-07-03T01:12:50;94531.16;;;23.70;43.68
70902;BME280;58548;47.210;8.618;2022-07-03T01:15:52;94532.50;;;23.72;43.82
70902;BME280;58548;47.210;8.618;2022-07-03T01:18:49;94529.78;;;23.67;44.06
70902;BME280;58548;47.210;8.618;2022-07-03T01:27:09;94429.00;;;22.95;43.82
70902;BME280;58548;47.210;8.618;2022-07-03T01:29:52;94498.47;;;23.26;44.10
70902;BME280;58548;47.210;8.618;2022-07-03T01:32:33;94469.03;;;23.11;43.96
70902;BME280;58548;47.210;8.618;2022-07-03T01:35:06;94454.59;;;23.01;43.88
70902;BME280;58548;47.210;8.618;2022-07-03T01:37:35;94532.13;;;23.48;44.07
70902;BME280;58548;47.210;8.618;2022-07-03T01:40:06;94529.72;;;23.46;44.14
70902;BME280;58548;47.210;8.618;2022-07-03T01:42:36;94527.56;;;23.38;43.98
70902;BME280;58548;47.210;8.618;2022-07-03T01:45:10;94462.53;;;22.91;44.39
70902;BME280;58548;47.210;8.618;2022-07-03T01:47:42;94525.91;;;23.32;44.48
70902;BME280;58548;47.210;8.618;2022-07-03T01:50:14;94520.84;;;23.30;44.48
70902;BME280;58548;47.210;8.618;2022-07-03T01:52:45;94464.41;;;22.91;44.56
70902;BME280;58548;47.210;8.618;2022-07-03T01:55:13;94507.72;;;23.18;44.44
70902;BME280;58548;47.210;8.618;2022-07-03T01:57:48;94458.81;;;22.87;44.11
70902;BME280;58548;47.210;8.618;2022-07-03T02:00:18;94464.13;;;22.87;44.51
70902;BME280;58548;47.210;8.618;2022-07-03T02:02:57;94472.63;;;22.89;44.32
70902;BME280;58548;47.210;8.618;2022-07-03T02:05:43;94534.69;;;23.32;44.27
70902;BME280;58548;47.210;8.618;2022-07-03T02:11:18;94463.81;;;22.83;44.58
70902;BME280;58548;47.210;8.618;2022-07-03T02:19:41;94533.34;;;23.25;44.34
70902;BME280;58548;47.210;8.618;2022-07-03T02:22:11;94527.66;;;23.16;44.12
70902;BME280;58548;47.210;8.618;2022-07-03T02:24:44;94531.94;;;23.17;44.08
70902;BME280;58548;47.210;8.618;2022-07-03T02:27:23;94543.19;;;23.24;44.20
70902;BME280;58548;47.210;8.618;2022-07-03T02:30:01;94466.44;;;22.73;44.06
70902;BME280;58548;47.210;8.618;2022-07-03T02:32:32;94529.78;;;23.14;44.29
70902;BME280;58548;47.210;8.618;2022-07-03T02:35:05;94544.19;;;23.18;44.29
70902;BME280;58548;47.210;8.618;2022-07-03T02:38:08;94547.63;;;23.13;44.45
70902;BME280;58548;47.210;8.618;2022-07-03T02:40:54;94545.22;;;23.12;44.33
70902;BME280;58548;47.210;8.618;2022-07-03T02:58:12;94501.13;;;22.51;43.77
70902;BME280;58548;47.210;8.618;2022-07-03T03:00:55;94517.16;;;22.56;43.50
70902;BME280;58548;47.210;8.618;2022-07-03T03:03:30;94568.75;;;22.87;43.86
70902;BME280;58548;47.210;8.618;2022-07-03T03:06:36;94552.97;;;22.76;43.89
70902;BME280;58548;47.210;8.618;2022-07-03T03:09:04;94546.25;;;22.68;43.90
70902;BME280;58548;47.210;8.618;2022-07-03T03:11:44;94485.75;;;22.25;43.88
70902;BME280;58548;47.210;8.618;2022-07-03T03:14:15;94573.47;;;22.75;43.57
70902;BME280;58548;47.210;8.618;2022-07-03T03:16:52;94566.72;;;22.67;43.51
70902;BME280;58548;47.210;8.618;2022-07-03T03:19:21;94491.78;;;22.16;43.67
70902;BME280;58548;47.210;8.618;2022-07-03T03:24:45;94502.69;;;22.19;43.73
70902;BME280;58548;47.210;8.618;2022-07-03T03:27:12;94574.69;;;22.62;43.85
70902;BME280;58548;47.210;8.618;2022-07-03T03:29:39;94519.72;;;22.18;43.89
70902;BME280;58548;47.210;8.618;2022-07-03T03:32:06;94577.81;;;22.54;43.97
70902;BME280;58548;47.210;8.618;2022-07-03T03:34:35;94589.28;;;22.54;43.46
70902;BME280;58548;47.210;8.618;2022-07-03T03:37:01;94589.44;;;22.48;43.70
70902;BME280;58548;47.210;8.618;2022-07-03T03:39:30;94525.16;;;22.01;43.51
70902;BME280;58548;47.210;8.618;2022-07-03T03:41:58;94494.66;;;21.81;44.18
70902;BME280;58548;47.210;8.618;2022-07-03T03:44:27;94588.03;;;22.40;44.04
70902;BME280;58548;47.210;8.618;2022-07-03T03:46:56;94521.31;;;21.92;43.87
70902;BME280;58548;47.210;8.618;2022-07-03T03:49:25;94591.31;;;22.47;43.78
70902;BME280;58548;47.210;8.618;2022-07-03T03:51:51;94554.09;;;22.25;43.72
70902;BME280;58548;47.210;8.618;2022-07-03T03:54:18;94594.00;;;22.47;44.07
70902;BME280;58548;47.210;8.618;2022-07-03T03:56:49;94580.31;;;22.38;44.06
70902;BME280;58548;47.210;8.618;2022-07-03T03:59:15;94526.19;;;22.00;43.93
70902;BME280;58548;47.210;8.618;2022-07-03T04:01:44;94595.88;;;22.52;43.99
70902;BME280;58548;47.210;8.618;2022-07-03T04:04:14;94604.06;;;22.45;43.98
70902;BME280;58548;47.210;8.618;2022-07-03T04:06:44;94584.94;;;22.48;44.30
70902;BME280;58548;47.210;8.618;2022-07-03T04:09:12;94596.38;;;22.49;43.93
70902;BME280;58548;47.210;8.618;2022-07-03T04:11:38;94521.72;;;22.06;43.96
70902;BME280;58548;47.210;8.618;2022-07-03T04:14:06;94501.16;;;21.96;43.95
70902;BME280;58548;47.210;8.618;2022-07-03T04:16:33;94599.16;;;22.59;44.09
70902;BME280;58548;47.210;8.618;2022-07-03T04:18:59;94535.44;;;22.20;43.82
70902;BME280;58548;47.210;8.618;2022-07-03T04:21:25;94600.50;;;22.62;44.19
70902;BME280;58548;47.210;8.618;2022-07-03T04:23:53;94521.59;;;22.18;43.53
70902;BME280;58548;47.210;8.618;2022-07-03T04:26:23;94528.00;;;22.22;43.44
70902;BME280;58548;47.210;8.618;2022-07-03T04:28:51;94600.34;;;22.73;43.54
70902;BME280;58548;47.210;8.618;2022-07-03T04:31:17;94601.19;;;22.79;43.79
70902;BME280;58548;47.210;8.618;2022-07-03T04:33:43;94599.88;;;22.82;43.66
70902;BME280;58548;47.210;8.618;2022-07-03T04:36:14;94546.88;;;22.48;43.80
70902;BME280;58548;47.210;8.618;2022-07-03T04:38:40;94600.97;;;22.86;43.46
70902;BME280;58548;47.210;8.618;2022-07-03T04:41:06;94605.28;;;22.92;43.41
70902;BME280;58548;47.210;8.618;2022-07-03T04:43:32;94596.78;;;22.95;43.15
70902;BME280;58548;47.210;8.618;2022-07-03T04:46:00;94583.19;;;22.92;43.30
70902;BME280;58548;47.210;8.618;2022-07-03T04:48:31;94602.97;;;23.06;42.94
70902;BME280;58548;47.210;8.618;2022-07-03T04:51:00;94505.94;;;22.54;42.88
70902;BME280;58548;47.210;8.618;2022-07-03T04:53:28;94587.84;;;23.12;43.06
70902;BME280;58548;47.210;8.618;2022-07-03T04:55:57;94504.44;;;22.68;42.79
70902;BME280;58548;47.210;8.618;2022-07-03T04:58:23;94596.84;;;23.38;42.96
70902;BME280;58548;47.210;8.618;2022-07-03T05:00:51;94598.50;;;23.49;43.14
70902;BME280;58548;47.210;8.618;2022-07-03T05:03:17;94603.09;;;23.59;43.17
70902;BME280;58548;47.210;8.618;2022-07-03T05:05:43;94525.63;;;23.23;42.32
70902;BME280;58548;47.210;8.618;2022-07-03T05:08:09;94596.53;;;23.88;42.54
70902;BME280;58548;47.210;8.618;2022-07-03T05:10:39;94603.03;;;24.02;42.44
70902;BME280;58548;47.210;8.618;2022-07-03T05:13:05;94590.25;;;24.09;42.56
70902;BME280;58548;47.210;8.618;2022-07-03T05:15:31;94580.91;;;24.17;42.82
70902;BME280;58548;47.210;8.618;2022-07-03T05:17:59;94527.53;;;24.02;42.74
70902;BME280;58548;47.210;8.618;2022-07-03T05:20:25;94499.75;;;23.92;42.47
70902;BME280;58548;47.210;8.618;2022-07-03T05:25:21;94546.25;;;24.38;42.56
70902;BME280;58548;47.210;8.618;2022-07-03T05:27:50;94508.91;;;24.22;42.63
70902;BME280;58548;47.210;8.618;2022-07-03T05:30:16;94596.00;;;24.86;42.42
70902;BME280;58548;47.210;8.618;2022-07-03T05:32:45;94608.31;;;24.97;41.78
70902;BME280;58548;47.210;8.618;2022-07-03T05:35:13;94529.75;;;24.57;41.53
70902;BME280;58548;47.210;8.618;2022-07-03T05:37:39;94543.38;;;24.76;41.26
70902;BME280;58548;47.210;8.618;2022-07-03T05:40:09;94604.28;;;25.25;40.96
70902;BME280;58548;47.210;8.618;2022-07-03T05:42:38;94606.13;;;25.46;40.37
70902;BME280;58548;47.210;8.618;2022-07-03T05:45:07;94534.78;;;25.15;40.13
70902;BME280;58548;47.210;8.618;2022-07-03T05:47:35;94603.38;;;25.77;39.85
70902;BME280;58548;47.210;8.618;2022-07-03T05:50:01;94605.97;;;26.02;40.29
70902;BME280;58548;47.210;8.618;2022-07-03T05:52:27;94580.75;;;26.14;38.92
70902;BME280;58548;47.210;8.618;2022-07-03T05:54:56;94547.53;;;26.25;38.12
70902;BME280;58548;47.210;8.618;2022-07-03T05:57:21;94525.13;;;26.51;38.48
70902;BME280;58548;47.210;8.618;2022-07-03T05:59:47;94555.75;;;27.08;37.76
70902;BME280;58548;47.210;8.618;2022-07-03T06:02:15;94518.34;;;27.22;37.90
70902;BME280;58548;47.210;8.618;2022-07-03T06:04:44;94609.16;;;28.12;37.25
70902;BME280;58548;47.210;8.618;2022-07-03T06:07:10;94598.78;;;28.44;36.37
70902;BME280;58548;47.210;8.618;2022-07-03T06:09:36;94589.91;;;28.82;35.53
70902;BME280;58548;47.210;8.618;2022-07-03T06:12:02;94598.13;;;29.24;35.41
70902;BME280;58548;47.210;8.618;2022-07-03T06:14:33;94542.53;;;29.19;35.07
70902;BME280;58548;47.210;8.618;2022-07-03T06:17:01;94608.31;;;30.02;33.80
70902;BME280;58548;47.210;8.618;2022-07-03T06:19:32;94608.66;;;30.37;31.62
70902;BME280;58548;47.210;8.618;2022-07-03T06:21:58;94587.16;;;30.60;31.48
70902;BME280;58548;47.210;8.618;2022-07-03T06:24:23;94610.53;;;31.10;31.79
70902;BME280;58548;47.210;8.618;2022-07-03T06:26:52;94548.81;;;31.08;30.29
70902;BME280;58548;47.210;8.618;2022-07-03T06:29:20;94538.66;;;31.37;30.42
70902;BME280;58548;47.210;8.618;2022-07-03T06:31:48;94583.72;;;32.08;28.88
70902;BME280;58548;47.210;8.618;2022-07-03T06:34:16;94578.53;;;32.47;27.72
70902;BME280;58548;47.210;8.618;2022-07-03T06:36:42;94536.25;;;32.51;27.20
70902;BME280;58548;47.210;8.618;2022-07-03T06:39:11;94534.97;;;32.75;26.82
70902;BME280;58548;47.210;8.618;2022-07-03T06:41:39;94597.75;;;33.42;25.14
70902;BME280;58548;47.210;8.618;2022-07-03T06:44:05;94605.16;;;33.63;25.48
70902;BME280;58548;47.210;8.618;2022-07-03T06:46:31;94590.06;;;33.92;25.44
70902;BME280;58548;47.210;8.618;2022-07-03T06:48:56;94597.56;;;34.25;24.22
70902;BME280;58548;47.210;8.618;2022-07-03T06:51:22;94594.81;;;34.55;23.27
70902;BME280;58548;47.210;8.618;2022-07-03T06:53:50;94584.38;;;34.87;23.20
70902;BME280;58548;47.210;8.618;2022-07-03T06:56:16;94585.84;;;35.18;23.49
70902;BME280;58548;47.210;8.618;2022-07-03T06:58:42;94526.66;;;34.99;23.21
70902;BME280;58548;47.210;8.618;2022-07-03T07:01:10;94524.13;;;35.15;23.27
70902;BME280;58548;47.210;8.618;2022-07-03T07:03:39;94523.91;;;35.32;24.48
70902;BME280;58548;47.210;8.618;2022-07-03T07:06:07;94534.69;;;35.54;23.92
70902;BME280;58548;47.210;8.618;2022-07-03T07:08:33;94581.78;;;35.83;23.86
70902;BME280;58548;47.210;8.618;2022-07-03T07:11:04;94551.34;;;35.65;24.61
70902;BME280;58548;47.210;8.618;2022-07-03T07:13:32;94562.53;;;35.75;24.17
70902;BME280;58548;47.210;8.618;2022-07-03T07:15:59;94507.88;;;35.65;24.35
70902;BME280;58548;47.210;8.618;2022-07-03T07:18:27;94579.78;;;36.04;22.52
70902;BME280;58548;47.210;8.618;2022-07-03T07:20:58;94570.81;;;36.04;22.73
70902;BME280;58548;47.210;8.618;2022-07-03T07:23:26;94526.66;;;35.70;22.38
70902;BME280;58548;47.210;8.618;2022-07-03T07:25:54;94563.69;;;35.87;21.95
70902;BME280;58548;47.210;8.618;2022-07-03T07:28:20;94522.38;;;35.56;21.62
70902;BME280;58548;47.210;8.618;2022-07-03T07:30:48;94516.94;;;35.56;20.32
70902;BME280;58548;47.210;8.618;2022-07-03T07:33:21;94517.09;;;35.39;18.97
70902;BME280;58548;47.210;8.618;2022-07-03T07:35:50;94503.03;;;34.99;20.84
70902;BME280;58548;47.210;8.618;2022-07-03T07:38:17;94574.66;;;35.66;22.08
70902;BME280;58548;47.210;8.618;2022-07-03T07:40:43;94459.41;;;35.05;22.33
70902;BME280;58548;47.210;8.618;2022-07-03T07:43:11;94564.00;;;35.85;21.21
70902;BME280;58548;47.210;8.618;2022-07-03T07:45:37;94533.72;;;35.96;20.54
70902;BME280;58548;47.210;8.618;2022-07-03T07:48:06;94573.59;;;36.57;20.54
70902;BME280;58548;47.210;8.618;2022-07-03T07:50:32;94548.03;;;37.03;20.12
70902;BME280;58548;47.210;8.618;2022-07-03T07:52:58;94567.72;;;37.56;19.32
70902;BME280;58548;47.210;8.618;2022-07-03T07:55:24;94504.38;;;37.44;19.33
70902;BME280;58548;47.210;8.618;2022-07-03T07:57:51;94566.00;;;38.16;18.66
70902;BME280;58548;47.210;8.618;2022-07-03T08:00:20;94572.84;;;38.61;18.25
70902;BME280;58548;47.210;8.618;2022-07-03T08:02:47;94565.75;;;38.76;17.49
70902;BME280;58548;47.210;8.618;2022-07-03T08:05:34;94495.50;;;38.73;18.66
70902;BME280;58548;47.210;8.618;2022-07-03T08:13:02;94563.94;;;39.93;16.72
70902;BME280;58548;47.210;8.618;2022-07-03T08:15:33;94514.66;;;39.86;16.97
70902;BME280;58548;47.210;8.618;2022-07-03T08:18:00;94563.56;;;40.49;16.00
70902;BME280;58548;47.210;8.618;2022-07-03T08:20:28;94565.25;;;40.88;16.61
70902;BME280;58548;47.210;8.618;2022-07-03T08:22:54;94561.22;;;41.08;15.82
70902;BME280;58548;47.210;8.618;2022-07-03T08:25:24;94546.06;;;41.22;15.95
70902;BME280;58548;47.210;8.618;2022-07-03T08:27:50;94513.16;;;41.14;15.40
70902;BME280;58548;47.210;8.618;2022-07-03T08:30:19;94565.44;;;41.85;14.73
70902;BME280;58548;47.210;8.618;2022-07-03T08:32:50;94497.59;;;41.71;14.34
70902;BME280;58548;47.210;8.618;2022-07-03T08:35:19;94515.31;;;41.88;13.60
70902;BME280;58548;47.210;8.618;2022-07-03T08:37:45;94477.63;;;41.74;13.63
70902;BME280;58548;47.210;8.618;2022-07-03T08:40:17;94558.88;;;42.60;13.83
70902;BME280;58548;47.210;8.618;2022-07-03T08:42:47;94535.16;;;42.23;13.07
70902;BME280;58548;47.210;8.618;2022-07-03T08:45:17;94503.84;;;42.31;13.33
70902;BME280;58548;47.210;8.618;2022-07-03T08:47:47;94502.34;;;42.37;14.23
70902;BME280;58548;47.210;8.618;2022-07-03T08:50:18;94567.63;;;42.84;13.20
70902;BME280;58548;47.210;8.618;2022-07-03T08:52:46;94521.38;;;42.93;14.25
70902;BME280;58548;47.210;8.618;2022-07-03T08:55:16;94567.81;;;43.42;14.32
70902;BME280;58548;47.210;8.618;2022-07-03T08:57:48;94558.38;;;43.50;12.97
70902;BME280;58548;47.210;8.618;2022-07-03T09:00:17;94529.34;;;43.56;12.63
70902;BME280;58548;47.210;8.618;2022-07-03T09:02:48;94567.06;;;43.88;12.16
70902;BME280;58548;47.210;8.618;2022-07-03T09:05:15;94543.88;;;43.60;11.74
70902;BME280;58548;47.210;8.618;2022-07-03T09:07:44;94499.47;;;43.29;12.22
70902;BME280;58548;47.210;8.618;2022-07-03T09:10:13;94559.19;;;44.12;12.06
70902;BME280;58548;47.210;8.618;2022-07-03T09:12:40;94546.59;;;44.18;13.18
70902;BME280;58548;47.210;8.618;2022-07-03T09:15:08;94557.16;;;44.52;12.19
70902;BME280;58548;47.210;8.618;2022-07-03T09:17:37;94483.72;;;44.13;12.60
70902;BME280;58548;47.210;8.618;2022-07-03T09:20:06;94500.53;;;44.40;12.78
70902;BME280;58548;47.210;8.618;2022-07-03T09:22:36;94562.38;;;45.17;12.01
70902;BME280;58548;47.210;8.618;2022-07-03T09:27:37;94511.00;;;44.85;10.89
70902;BME280;58548;47.210;8.618;2022-07-03T09:30:07;94563.31;;;44.93;10.93
70902;BME280;58548;47.210;8.618;2022-07-03T09:35:12;94556.72;;;45.46;12.31
70902;BME280;58548;47.210;8.618;2022-07-03T09:38:03;94555.09;;;45.53;11.58
70902;BME280;58548;47.210;8.618;2022-07-03T09:41:01;94564.84;;;45.68;10.05
70902;BME280;58548;47.210;8.618;2022-07-03T09:43:31;94510.78;;;45.22;10.10
70902;BME280;58548;47.210;8.618;2022-07-03T09:46:01;94568.13;;;45.48;10.67
70902;BME280;58548;47.210;8.618;2022-07-03T09:48:33;94556.28;;;45.52;10.92
70902;BME280;58548;47.210;8.618;2022-07-03T09:51:16;94559.34;;;45.68;10.97
70902;BME280;58548;47.210;8.618;2022-07-03T09:56:26;94534.91;;;45.67;10.31
70902;BME280;58548;47.210;8.618;2022-07-03T09:59:13;94550.69;;;45.66;10.16
70902;BME280;58548;47.210;8.618;2022-07-03T10:01:43;94551.31;;;45.85;11.37
70902;BME280;58548;47.210;8.618;2022-07-03T10:07:01;94551.09;;;46.10;10.35
70902;BME280;58548;47.210;8.618;2022-07-03T10:09:33;94543.88;;;46.24;10.74
70902;BME280;58548;47.210;8.618;2022-07-03T10:12:02;94553.13;;;46.41;11.04
70902;BME280;58548;47.210;8.618;2022-07-03T10:14:31;94525.69;;;46.26;9.99
70902;BME280;58548;47.210;8.618;2022-07-03T10:16:58;94548.41;;;46.41;9.54
70902;BME280;58548;47.210;8.618;2022-07-03T10:19:30;94563.03;;;46.42;9.56
70902;BME280;58548;47.210;8.618;2022-07-03T10:22:09;94525.16;;;46.42;9.53
70902;BME280;58548;47.210;8.618;2022-07-03T10:24:49;94505.13;;;46.31;9.25
70902;BME280;58548;47.210;8.618;2022-07-03T10:27:20;94492.41;;;46.44;9.34
70902;BME280;58548;47.210;8.618;2022-07-03T10:29:52;94481.25;;;46.51;8.62
70902;BME280;58548;47.210;8.618;2022-07-03T10:32:21;94529.44;;;47.09;9.91
70902;BME280;58548;47.210;8.618;2022-07-03T10:34:49;94545.88;;;47.23;8.42
70902;BME280;58548;47.210;8.618;2022-07-03T10:37:20;94542.75;;;47.21;8.92
70902;BME280;58548;47.210;8.618;2022-07-03T10:40:02;94500.00;;;46.99;8.83
70902;BME280;58548;47.210;8.618;2022-07-03T10:43:00;94487.25;;;47.05;9.77
70902;BME280;58548;47.210;8.618;2022-07-03T10:51:21;94512.03;;;47.67;9.21
70902;BME280;58548;47.210;8.618;2022-07-03T10:53:48;94482.94;;;47.04;8.75
70902;BME280;58548;47.210;8.618;2022-07-03T10:56:14;94528.56;;;47.19;11.15
70902;BME280;58548;47.210;8.618;2022-07-03T10:59:00;94501.81;;;47.09;10.50
70902;BME280;58548;47.210;8.618;2022-07-03T11:01:29;94528.97;;;46.87;9.74
70902;BME280;58548;47.210;8.618;2022-07-03T11:04:01;94471.44;;;46.47;10.38
70902;BME280;58548;47.210;8.618;2022-07-03T11:09:10;94523.41;;;46.90;10.33
70902;BME280;58548;47.210;8.618;2022-07-03T11:11:44;94522.34;;;47.08;9.66
70902;BME280;58548;47.210;8.618;2022-07-03T11:14:25;94462.06;;;46.72;9.76
70902;BME280;58548;47.210;8.618;2022-07-03T11:17:19;94523.91;;;47.09;9.70
70902;BME280;58548;47.210;8.618;2022-07-03T11:19:47;94430.88;;;46.40;9.98
70902;BME280;58548;47.210;8.618;2022-07-03T11:25:17;94456.31;;;46.24;9.94
70902;BME280;58548;47.210;8.618;2022-07-03T11:27:43;94505.41;;;46.44;11.35
70902;BME280;58548;47.210;8.618;2022-07-03T11:30:11;94508.88;;;46.13;11.21
70902;BME280;58548;47.210;8.618;2022-07-03T11:32:49;94501.28;;;45.33;11.10
70902;BME280;58548;47.210;8.618;2022-07-03T11:35:53;94513.53;;;44.40;11.60
70902;BME280;58548;47.210;8.618;2022-07-03T11:38:24;94478.63;;;43.93;11.19
70902;BME280;58548;47.210;8.618;2022-07-03T11:40:55;94479.44;;;43.32;12.02
70902;BME280;58548;47.210;8.618;2022-07-03T11:43:23;94480.56;;;42.91;13.39
70902;BME280;58548;47.210;8.618;2022-07-03T11:45:52;94487.13;;;42.65;13.06
70902;BME280;58548;47.210;8.618;2022-07-03T11:48:20;94423.06;;;42.21;13.11
70902;BME280;58548;47.210;8.618;2022-07-03T11:50:51;94481.63;;;42.65;13.24
70902;BME280;58548;47.210;8.618;2022-07-03T11:53:29;94425.63;;;41.88;13.11
70902;BME280;58548;47.210;8.618;2022-07-03T11:55:58;94486.13;;;42.17;13.72
70902;BME280;58548;47.210;8.618;2022-07-03T11:58:39;94422.69;;;41.52;13.14
70902;BME280;58548;47.210;8.618;2022-07-03T12:01:06;94457.38;;;41.89;13.87
70902;BME280;58548;47.210;8.618;2022-07-03T12:03:32;94470.75;;;41.46;13.93
70902;BME280;58548;47.210;8.618;2022-07-03T12:05:58;94464.63;;;41.15;13.76
70902;BME280;58548;47.210;8.618;2022-07-03T12:08:32;94406.47;;;40.91;14.42
70902;BME280;58548;47.210;8.618;2022-07-03T12:11:06;94466.78;;;40.98;13.65
70902;BME280;58548;47.210;8.618;2022-07-03T12:13:36;94465.00;;;40.76;14.41
70902;BME280;58548;47.210;8.618;2022-07-03T12:16:07;94373.03;;;39.99;14.08
70902;BME280;58548;47.210;8.618;2022-07-03T12:18:53;94404.09;;;40.14;14.88
70902;BME280;58548;47.210;8.618;2022-07-03T12:21:23;94393.44;;;40.39;16.25
70902;BME280;58548;47.210;8.618;2022-07-03T12:26:30;94409.53;;;40.82;16.61
70902;BME280;58548;47.210;8.618;2022-07-03T12:29:09;94449.09;;;41.34;15.94
70902;BME280;58548;47.210;8.618;2022-07-03T12:31:38;94466.41;;;41.41;14.58
70902;BME280;58548;47.210;8.618;2022-07-03T12:34:08;94457.63;;;41.21;14.73
70902;BME280;58548;47.210;8.618;2022-07-03T12:36:36;94394.31;;;40.85;15.19
70902;BME280;58548;47.210;8.618;2022-07-03T12:39:03;94405.41;;;41.03;15.09
70902;BME280;58548;47.210;8.618;2022-07-03T12:41:32;94409.06;;;41.18;16.11
70902;BME280;58548;47.210;8.618;2022-07-03T12:43:59;94397.16;;;40.99;15.99
70902;BME280;58548;47.210;8.618;2022-07-03T12:48:59;94391.09;;;41.21;15.35
70902;BME280;58548;47.210;8.618;2022-07-03T12:51:41;94393.13;;;41.27;15.42
70902;BME280;58548;47.210;8.618;2022-07-03T12:54:13;94443.41;;;41.53;15.72
70902;BME280;58548;47.210;8.618;2022-07-03T12:56:42;94379.63;;;41.08;15.86
70902;BME280;58548;47.210;8.618;2022-07-03T12:59:29;94443.94;;;41.70;16.05
70902;BME280;58548;47.210;8.618;2022-07-03T13:02:04;94433.75;;;41.74;16.30
70902;BME280;58548;47.210;8.618;2022-07-03T13:04:35;94403.94;;;41.65;15.49
70902;BME280;58548;47.210;8.618;2022-07-03T13:07:08;94392.16;;;41.57;14.47
70902;BME280;58548;47.210;8.618;2022-07-03T13:09:36;94405.06;;;41.57;15.05
70902;BME280;58548;47.210;8.618;2022-07-03T13:12:06;94420.38;;;41.62;14.83
70902;BME280;58548;47.210;8.618;2022-07-03T13:14:32;94422.53;;;41.38;14.44
70902;BME280;58548;47.210;8.618;2022-07-03T13:17:02;94417.03;;;41.34;16.24
70902;BME280;58548;47.210;8.618;2022-07-03T13:19:28;94414.66;;;41.33;15.91
70902;BME280;58548;47.210;8.618;2022-07-03T13:21:56;94411.47;;;41.23;16.33
70902;BME280;58548;47.210;8.618;2022-07-03T13:24:23;94412.50;;;41.08;15.60
70902;BME280;58548;47.210;8.618;2022-07-03T13:26:53;94399.56;;;41.05;15.36
70902;BME280;58548;47.210;8.618;2022-07-03T13:29:18;94389.16;;;40.76;15.65
70902;BME280;58548;47.210;8.618;2022-07-03T13:31:47;94410.09;;;40.61;15.94
70902;BME280;58548;47.210;8.618;2022-07-03T13:34:15;94343.72;;;40.30;16.41
70902;BME280;58548;47.210;8.618;2022-07-03T13:36:43;94409.91;;;40.81;16.51
70902;BME280;58548;47.210;8.618;2022-07-03T13:39:11;94390.94;;;40.61;16.01
70902;BME280;58548;47.210;8.618;2022-07-03T13:41:40;94398.84;;;40.66;16.48
70902;BME280;58548;47.210;8.618;2022-07-03T13:44:08;94339.06;;;40.34;16.94
70902;BME280;58548;47.210;8.618;2022-07-03T13:46:34;94405.53;;;40.73;16.53
70902;BME280;58548;47.210;8.618;2022-07-03T13:49:00;94337.50;;;40.33;16.10
70902;BME280;58548;47.210;8.618;2022-07-03T13:51:26;94343.03;;;40.06;16.84
70902;BME280;58548;47.210;8.618;2022-07-03T13:53:54;94336.00;;;40.05;17.16
70902;BME280;58548;47.210;8.618;2022-07-03T13:56:20;94384.41;;;40.35;15.83
70902;BME280;58548;47.210;8.618;2022-07-03T13:58:48;94409.19;;;40.50;16.45
70902;BME280;58548;47.210;8.618;2022-07-03T14:01:18;94390.75;;;40.09;15.55
70902;BME280;58548;47.210;8.618;2022-07-03T14:03:52;94311.91;;;39.50;16.24
70902;BME280;58548;47.210;8.618;2022-07-03T14:06:20;94400.03;;;40.04;16.90
70902;BME280;58548;47.210;8.618;2022-07-03T14:08:48;94397.81;;;40.14;16.64
70902;BME280;58548;47.210;8.618;2022-07-03T14:11:15;94382.72;;;39.93;16.32
70902;BME280;58548;47.210;8.618;2022-07-03T14:13:44;94328.50;;;39.68;17.15
70902;BME280;58548;47.210;8.618;2022-07-03T14:16:13;94368.34;;;40.00;16.98
70902;BME280;58548;47.210;8.618;2022-07-03T14:18:41;94380.31;;;39.88;16.31
70902;BME280;58548;47.210;8.618;2022-07-03T14:21:07;94403.25;;;40.10;17.53
70902;BME280;58548;47.210;8.618;2022-07-03T14:23:38;94411.81;;;40.08;18.78
70902;BME280;58548;47.210;8.618;2022-07-03T14:26:03;94342.81;;;39.58;16.65
70902;BME280;58548;47.210;8.618;2022-07-03T14:28:29;94306.00;;;39.48;17.50